Time;durP1;ratioP1;P1;durP2;ratioP2;P2;SDS_P1;SDS_P2;PMS_P1;PMS_P2;Temp;Humidity;BMP_temperature;BMP_pressure;BME280_temperature;BME280_humidity;BME280_pressure;Samples;Min_cycle;Max_cycle;Signal;HPM_P1;HPM_P2
2021/01/30 00:01:45;;;;;;;74.85;37.42;;;;;;;-0.96;85.02;96039.09;1771473;81;21139;-75
2021/01/30 00:04:13;;;;;;;71.72;35.23;;;;;;;-0.95;84.90;96043.35;1771387;80;21439;-75
2021/01/30 00:06:51;;;;;;;71.50;34.92;;;;;;;-0.96;84.39;96038.30;1770961;81;21118;-75
2021/01/30 00:09:19;;;;;;;72.82;35.90;;;;;;;-0.93;84.50;96043.92;1760837;81;21097;-73
2021/01/30 00:11:51;;;;;;;77.55;33.45;;;;;;;-0.87;84.09;96038.09;1771052;81;21102;-73
2021/01/30 00:14:22;;;;;;;67.35;34.13;;;;;;;-0.90;84.07;96028.78;1770816;81;21606;-75
2021/01/30 00:16:49;;;;;;;64.05;34.53;;;;;;;-0.89;84.09;96034.89;1770977;81;21105;-73
2021/01/30 00:19:15;;;;;;;80.25;37.42;;;;;;;-0.95;84.21;96038.03;1770919;80;21408;-73
2021/01/30 00:21:41;;;;;;;74.32;35.55;;;;;;;-0.90;83.64;96038.61;1771007;81;21177;-73
2021/01/30 00:24:07;;;;;;;62.60;33.18;;;;;;;-0.88;83.69;96038.63;1770897;81;21086;-73
2021/01/30 00:26:34;;;;;;;71.37;34.18;;;;;;;-0.85;83.58;96041.32;1770922;81;22108;-73
2021/01/30 00:29:00;;;;;;;73.40;34.50;;;;;;;-0.86;83.50;96039.69;1770842;80;21074;-73
2021/01/30 00:31:26;;;;;;;62.20;32.13;;;;;;;-0.84;83.60;96040.79;1770945;81;21153;-73
2021/01/30 00:33:52;;;;;;;78.00;35.68;;;;;;;-0.79;83.28;96039.48;1770831;80;21137;-73
2021/01/30 00:36:19;;;;;;;64.95;32.38;;;;;;;-0.74;83.12;96040.33;1770976;81;21055;-73
2021/01/30 00:38:45;;;;;;;67.27;34.15;;;;;;;-0.73;82.86;96039.27;1770977;80;21282;-73
2021/01/30 00:41:11;;;;;;;74.62;36.13;;;;;;;-0.68;82.97;96036.65;1770868;81;21534;-73
2021/01/30 00:43:37;;;;;;;72.05;36.98;;;;;;;-0.64;82.71;96033.73;1770967;80;21581;-73
2021/01/30 00:46:03;;;;;;;71.20;37.10;;;;;;;-0.67;82.60;96038.78;1770939;81;21159;-73
2021/01/30 00:48:29;;;;;;;72.55;35.60;;;;;;;-0.71;82.79;96045.66;1770963;80;21483;-73
2021/01/30 00:50:56;;;;;;;74.72;34.88;;;;;;;-0.64;82.84;96044.91;1770934;81;21267;-73
2021/01/30 00:53:22;;;;;;;72.22;33.95;;;;;;;-0.58;83.01;96043.89;1770759;80;21050;-73
2021/01/30 00:55:48;;;;;;;70.28;33.88;;;;;;;-0.57;82.63;96042.83;1770884;81;21136;-73
2021/01/30 00:58:14;;;;;;;64.97;34.75;;;;;;;-0.58;82.59;96048.68;1770944;80;21177;-73
2021/01/30 01:00:40;;;;;;;63.23;33.98;;;;;;;-0.57;82.52;96052.14;1770994;81;21625;-73
2021/01/30 01:03:06;;;;;;;76.50;35.65;;;;;;;-0.56;82.63;96051.08;1770992;80;21311;-74
2021/01/30 01:05:32;;;;;;;61.30;33.40;;;;;;;-0.58;82.64;96050.02;1770890;81;21443;-73
2021/01/30 01:07:58;;;;;;;74.67;34.85;;;;;;;-0.59;82.55;96044.42;1770917;80;21561;-73
2021/01/30 01:10:25;;;;;;;66.45;32.60;;;;;;;-0.60;82.29;96044.16;1770874;81;21070;-73
2021/01/30 01:12:51;;;;;;;61.25;31.33;;;;;;;-0.65;82.49;96036.66;1770914;81;21575;-73
2021/01/30 01:15:19;;;;;;;75.35;37.80;;;;;;;-0.64;82.32;96037.73;1770842;81;21849;-73
2021/01/30 01:17:46;;;;;;;69.55;34.75;;;;;;;-0.60;82.31;96034.02;1770880;81;21089;-73
2021/01/30 01:20:15;;;;;;;67.55;32.38;;;;;;;-0.53;82.38;96029.27;1770830;80;21447;-73
2021/01/30 01:22:42;;;;;;;64.92;30.68;;;;;;;-0.53;82.37;96030.60;1770871;81;21125;-74
2021/01/30 01:25:09;;;;;;;67.72;32.28;;;;;;;-0.56;82.17;96031.13;1770960;80;21126;-74
2021/01/30 01:27:35;;;;;;;71.02;36.35;;;;;;;-0.62;82.32;96033.47;1770908;81;22030;-74
2021/01/30 01:30:01;;;;;;;74.45;36.03;;;;;;;-0.61;82.16;96031.88;1770773;80;21130;-74
2021/01/30 01:32:27;;;;;;;81.60;38.58;;;;;;;-0.58;82.45;96031.92;1770959;81;21597;-74
2021/01/30 01:34:53;;;;;;;69.62;36.42;;;;;;;-0.58;82.23;96030.06;1770804;80;21101;-74
2021/01/30 01:37:19;;;;;;;72.60;35.35;;;;;;;-0.57;82.64;96028.20;1770909;81;21169;-74
2021/01/30 01:39:46;;;;;;;67.47;33.13;;;;;;;-0.57;82.29;96033.52;1770826;80;21215;-74
2021/01/30 01:42:23;;;;;;;66.85;35.10;;;;;;;-0.54;82.19;96029.00;1770797;81;21149;-74
2021/01/30 01:44:50;;;;;;;67.80;32.85;;;;;;;-0.57;82.04;96030.33;1770884;80;21110;-75
2021/01/30 01:47:31;;;;;;;74.00;38.95;;;;;;;-0.54;82.08;96024.21;1770898;81;21109;-75
2021/01/30 01:50:04;;;;;;;66.77;33.75;;;;;;;-0.54;82.18;96025.55;1770551;80;21098;-74
2021/01/30 01:52:33;;;;;;;71.40;35.28;;;;;;;-0.55;82.08;96023.41;1741512;81;21267;-75
2021/01/30 01:55:07;;;;;;;78.28;39.42;;;;;;;-0.59;82.29;96021.81;1755804;80;21095;-75
2021/01/30 01:57:33;;;;;;;75.92;37.40;;;;;;;-0.57;82.49;96013.56;1743099;81;21519;-74
2021/01/30 02:00:00;;;;;;;67.32;34.40;;;;;;;-0.62;82.17;96010.33;1743398;82;21150;-74
2021/01/30 02:02:30;;;;;;;72.03;35.88;;;;;;;-0.65;82.47;96010.86;1743489;82;21094;-74
2021/01/30 02:05:09;;;;;;;76.62;38.40;;;;;;;-0.61;82.30;96007.94;1743384;82;21215;-74
2021/01/30 02:07:45;;;;;;;66.12;32.83;;;;;;;-0.60;82.62;96002.92;1743594;82;26099;-74
2021/01/30 02:10:16;;;;;;;63.65;32.30;;;;;;;-0.62;82.38;96008.20;1743358;82;21054;-75
2021/01/30 02:12:43;;;;;;;66.97;34.23;;;;;;;-0.61;82.07;96001.29;1743469;82;21535;-74
2021/01/30 02:15:13;;;;;;;76.72;39.53;;;;;;;-0.58;82.42;95999.46;1743363;82;21094;-74
2021/01/30 02:18:15;;;;;;;71.47;36.85;;;;;;;-0.54;82.18;95998.94;1743507;82;21980;-74
2021/01/30 02:21:19;;;;;;;85.00;41.95;;;;;;;-0.55;82.24;95999.47;1743060;81;21086;-74
2021/01/30 02:24:16;;;;;;;88.75;43.87;;;;;;;-0.58;81.89;95983.50;1743474;82;21046;-74
2021/01/30 02:27:25;;;;;;;85.83;38.10;;;;;;;-0.74;81.96;95977.82;1743478;82;21126;-74
2021/01/30 02:29:55;;;;;;;;;;;;;;;-0.69;82.00;95980.49;1746016;82;21492;-73
2021/01/30 02:32:58;;;;;;;73.25;33.23;;;;;;;-0.79;82.89;95972.46;1742478;81;21072;-74
2021/01/30 02:35:57;;;;;;;72.92;35.13;;;;;;;-0.80;82.50;95965.55;1743383;82;21444;-74
2021/01/30 02:38:26;;;;;;;79.75;40.73;;;;;;;-0.90;82.27;95962.30;1743530;82;21055;-74
2021/01/30 02:41:00;;;;;;;82.60;36.03;;;;;;;-0.95;82.46;95960.13;1743533;82;21126;-74
2021/01/30 02:43:31;;;;;;;79.67;40.08;;;;;;;-0.93;82.33;95960.16;1743478;82;21134;-75
2021/01/30 02:46:04;;;;;;;81.15;37.93;;;;;;;-0.92;82.36;95963.63;1743508;82;21202;-75
2021/01/30 02:48:35;;;;;;;80.97;38.70;;;;;;;-0.93;82.66;95972.12;1743484;82;21502;-74
2021/01/30 02:51:03;;;;;;;76.55;38.40;;;;;;;-0.88;82.79;95968.16;1743488;82;21106;-75
2021/01/30 02:53:34;;;;;;;79.70;42.50;;;;;;;-0.82;82.59;95969.00;1715950;82;21102;-74
2021/01/30 02:56:01;;;;;;;84.28;40.35;;;;;;;-0.75;82.84;95967.45;1765735;81;21101;-74
2021/01/30 02:58:43;;;;;;;83.62;42.90;;;;;;;-0.78;82.69;95955.97;1770910;80;21152;-74
2021/01/30 03:01:10;;;;;;;77.05;37.42;;;;;;;-0.77;82.79;95958.90;1770849;81;21153;-74
2021/01/30 03:03:36;;;;;;;126.18;54.60;;;;;;;-0.73;82.69;95946.70;1770845;80;21157;-74
2021/01/30 03:06:11;;;;;;;84.17;43.15;;;;;;;-0.78;82.77;95946.66;1770740;81;21121;-74
2021/01/30 03:08:45;;;;;;;79.22;39.65;;;;;;;-0.78;83.15;95950.12;1770584;80;21117;-74
2021/01/30 03:11:23;;;;;;;86.02;40.65;;;;;;;-0.77;84.47;95944.27;1740884;81;21213;-75
2021/01/30 03:14:05;;;;;;;90.40;42.65;;;;;;;-0.70;83.96;95931.55;1770688;81;21134;-74
2021/01/30 03:16:39;;;;;;;85.15;41.35;;;;;;;-0.73;85.78;95933.41;1770870;81;21081;-74
2021/01/30 03:19:22;;;;;;;82.62;40.28;;;;;;;-0.67;85.14;95937.70;1770701;80;21034;-74
2021/01/30 03:21:50;;;;;;;70.40;37.33;;;;;;;-0.68;84.78;95935.57;1769790;81;21117;-74
2021/01/30 03:24:16;;;;;;;72.10;38.10;;;;;;;-0.66;84.48;95938.77;1771028;80;21274;-75
2021/01/30 03:26:44;;;;;;;84.85;40.45;;;;;;;-0.59;84.05;95938.54;1770825;81;21153;-74
2021/01/30 03:29:12;;;;;;;76.35;36.55;;;;;;;-0.55;83.97;95928.16;1770741;80;21586;-74
2021/01/30 03:31:38;;;;;;;69.58;39.90;;;;;;;-0.52;83.63;95917.80;1740568;81;21526;-74
2021/01/30 03:34:09;;;;;;;72.32;35.92;;;;;;;-0.50;83.53;95925.53;1770843;80;21042;-74
2021/01/30 03:36:35;;;;;;;73.97;37.90;;;;;;;-0.52;85.17;95925.77;1770938;81;22123;-75
2021/01/30 03:39:06;;;;;;;71.33;38.42;;;;;;;-0.46;84.58;95930.59;1770675;80;21035;-74
2021/01/30 03:41:33;;;;;;;73.97;37.35;;;;;;;-0.46;84.54;95930.59;1759123;81;21438;-75
2021/01/30 03:43:59;;;;;;;81.45;41.35;;;;;;;-0.48;84.83;95914.09;1771010;80;21085;-75
2021/01/30 03:46:25;;;;;;;84.90;43.78;;;;;;;-0.50;84.97;95918.89;1770957;81;21046;-75
2021/01/30 03:48:51;;;;;;;75.92;39.33;;;;;;;-0.48;84.19;95924.21;1770926;80;21175;-75
2021/01/30 03:51:17;;;;;;;75.95;40.50;;;;;;;-0.50;84.33;95912.23;1770866;81;21162;-75
2021/01/30 03:53:44;;;;;;;74.58;39.95;;;;;;;-0.52;83.91;95915.13;1770976;81;21062;-75
2021/01/30 03:56:10;;;;;;;81.08;41.25;;;;;;;-0.54;84.68;95911.14;1762435;81;21157;-75
2021/01/30 03:58:39;;;;;;;84.07;38.92;;;;;;;-0.58;85.28;95909.01;1760064;81;21158;-75
2021/01/30 04:01:05;;;;;;;76.82;38.75;;;;;;;-0.61;85.66;95906.05;1760205;81;21210;-75
2021/01/30 04:03:32;;;;;;;78.70;39.27;;;;;;;-0.59;84.84;95898.63;1760054;81;21487;-75
2021/01/30 04:05:58;;;;;;;70.15;36.08;;;;;;;-0.61;84.90;95897.53;1760028;81;21162;-75
2021/01/30 04:08:24;;;;;;;74.03;34.70;;;;;;;-0.68;85.58;95910.30;1760167;81;21055;-75
2021/01/30 04:10:50;;;;;;;70.83;34.27;;;;;;;-0.64;84.29;95902.59;1760181;81;21095;-75
2021/01/30 04:13:18;;;;;;;70.25;34.63;;;;;;;-0.64;84.26;95892.75;1760097;81;21420;-75
2021/01/30 04:15:45;;;;;;;67.22;34.18;;;;;;;-0.65;85.61;95888.48;1760222;81;21098;-74
2021/01/30 04:18:12;;;;;;;75.67;35.50;;;;;;;-0.62;85.03;95893.28;1760070;81;21074;-75
2021/01/30 04:20:39;;;;;;;60.58;31.10;;;;;;;-0.57;84.55;95890.66;1760082;81;21499;-74
2021/01/30 04:23:05;;;;;;;55.55;30.50;;;;;;;-0.53;84.57;95879.48;1760039;81;21066;-74
2021/01/30 04:25:31;;;;;;;114.62;49.05;;;;;;;-0.47;84.38;95884.56;1760129;81;21273;-74
2021/01/30 04:27:58;;;;;;;123.65;59.10;;;;;;;-0.40;84.81;95887.78;1760010;81;21161;-74
2021/01/30 04:30:26;;;;;;;125.92;58.10;;;;;;;-0.35;84.97;95880.33;1760052;81;21067;-74
2021/01/30 04:32:53;;;;;;;139.85;65.78;;;;;;;-0.32;84.42;95880.63;1760152;81;21091;-74
2021/01/30 04:35:21;;;;;;;183.18;84.28;;;;;;;-0.31;85.24;95877.42;1760135;81;21099;-74
2021/01/30 04:37:47;;;;;;;77.17;42.60;;;;;;;-0.34;86.21;95879.30;1760218;81;22154;-74
2021/01/30 04:40:34;;;;;;;90.03;42.25;;;;;;;-0.37;86.14;95875.27;1759970;81;21452;-74
2021/01/30 04:43:46;;;;;;;80.60;37.50;;;;;;;-0.27;84.79;95871.03;1843077;76;22767;-73
2021/01/30 04:46:36;;;;;;;109.10;55.78;;;;;;;-0.34;85.79;95861.46;1786024;80;21492;-74
2021/01/30 04:49:16;;;;;;;66.15;31.42;;;;;;;-0.31;86.20;95855.60;1785773;79;21199;-75
2021/01/30 04:51:57;;;;;;;74.65;37.98;;;;;;;-0.24;85.09;95847.37;1785851;80;21507;-74
2021/01/30 04:54:44;;;;;;;78.72;36.83;;;;;;;-0.19;85.01;95854.02;1785614;79;20964;-74
2021/01/30 04:57:24;;;;;;;73.90;36.15;;;;;;;-0.09;85.52;95852.70;1785885;80;21705;-75
2021/01/30 05:00:08;;;;;;;70.32;35.25;;;;;;;-0.07;85.66;95845.27;1785555;79;20897;-74
2021/01/30 05:03:11;;;;;;;66.40;34.40;;;;;;;-0.12;84.75;95846.58;1781907;80;21188;-75
2021/01/30 05:05:37;;;;;;;77.60;41.00;;;;;;;-0.17;85.19;95852.42;1785385;80;21520;-74
2021/01/30 05:08:09;;;;;;;91.25;47.93;;;;;;;-0.18;85.88;95846.30;1785886;79;20976;-74
2021/01/30 05:10:44;;;;;;;93.27;44.70;;;;;;;-0.23;86.72;95848.17;1785443;80;21007;-74
2021/01/30 05:13:17;;;;;;;151.47;58.38;;;;;;;-0.20;86.75;95848.97;1785859;79;21094;-75
2021/01/30 05:16:00;;;;;;;146.70;57.25;;;;;;;-0.15;86.18;95858.30;1785875;80;21229;-74
2021/01/30 05:18:35;;;;;;;133.03;48.65;;;;;;;-0.07;85.54;95856.45;1785895;79;21419;-74
2021/01/30 05:21:10;;;;;;;104.90;45.35;;;;;;;-0.04;84.90;95851.92;1784917;80;21550;-74
2021/01/30 05:23:36;;;;;;;68.52;34.60;;;;;;;-0.01;84.76;95856.70;1785891;79;21447;-75
2021/01/30 05:26:13;;;;;;;62.85;31.80;;;;;;;0.08;84.97;95852.45;1785886;79;21106;-74
2021/01/30 05:28:49;;;;;;;134.78;62.70;;;;;;;0.15;85.01;95850.86;1785145;79;21197;-75
2021/01/30 05:31:48;;;;;;;74.07;39.20;;;;;;;0.17;85.08;95848.72;1785599;80;21626;-74
2021/01/30 05:34:28;;;;;;;56.10;30.40;;;;;;;0.24;85.23;95850.06;1785968;79;21114;-75
2021/01/30 05:37:02;;;;;;;54.90;27.82;;;;;;;0.32;84.60;95848.73;1785859;80;21527;-74
2021/01/30 05:39:58;;;;;;;69.17;36.03;;;;;;;0.32;84.70;95849.27;1785908;79;21395;-74
2021/01/30 05:42:48;;;;;;;109.92;54.00;;;;;;;0.31;84.78;95847.14;1784794;80;22030;-74
2021/01/30 05:45:44;;;;;;;58.20;28.23;;;;;;;0.30;84.93;95850.88;1785775;79;21114;-74
2021/01/30 05:48:17;;;;;;;55.67;27.10;;;;;;;0.27;84.77;95848.75;1785801;79;21067;-74
2021/01/30 05:50:57;;;;;;;64.90;30.85;;;;;;;0.24;84.97;95846.59;1785953;80;21499;-74
2021/01/30 05:53:25;;;;;;;68.17;36.10;;;;;;;0.26;85.35;95851.16;1785545;79;21051;-75
2021/01/30 05:55:51;;;;;;;56.35;30.20;;;;;;;0.23;85.32;95845.80;1785351;80;21385;-75
2021/01/30 05:58:20;;;;;;;63.30;31.35;;;;;;;0.25;86.33;95843.66;1785157;79;21059;-75
2021/01/30 06:00:46;;;;;;;55.08;26.07;;;;;;;0.21;87.10;95842.61;1785342;80;21110;-75
2021/01/30 06:03:18;;;;;;;54.10;27.90;;;;;;;0.26;85.77;95841.29;1785211;79;21611;-75
2021/01/30 06:05:48;;;;;;;57.95;29.70;;;;;;;0.26;86.03;95844.49;1785311;80;21099;-75
2021/01/30 06:08:22;;;;;;;46.77;26.50;;;;;;;0.29;85.54;95841.28;1784704;79;21274;-74
2021/01/30 06:10:54;;;;;;;49.65;27.58;;;;;;;0.37;85.95;95836.75;1785244;80;20984;-74
2021/01/30 06:13:30;;;;;;;55.67;30.52;;;;;;;0.49;85.68;95838.59;1838807;76;22415;-74
2021/01/30 06:16:00;;;;;;;66.00;35.60;;;;;;;0.41;86.21;95838.34;1785916;80;21527;-73
2021/01/30 06:18:34;;;;;;;91.35;38.20;;;;;;;0.38;86.70;95846.34;1785892;79;22065;-73
2021/01/30 06:21:19;;;;;;;95.80;40.43;;;;;;;0.39;86.05;95838.61;1785794;80;21087;-75
2021/01/30 06:24:11;;;;;;;122.42;55.88;;;;;;;0.38;86.02;95848.20;1785894;79;21035;-74
2021/01/30 06:26:43;;;;;;;125.55;57.58;;;;;;;0.40;85.77;95843.40;1786005;80;21413;-75
2021/01/30 06:29:43;;;;;;;109.48;51.42;;;;;;;0.49;85.62;95832.47;1785886;79;21019;-74
2021/01/30 06:32:33;;;;;;;64.07;33.78;;;;;;;0.57;85.74;95835.92;1785851;80;21435;-74
2021/01/30 06:35:11;;;;;;;66.77;34.48;;;;;;;0.68;85.60;95840.70;1785845;79;20900;-75
2021/01/30 06:37:48;;;;;;;55.17;31.52;;;;;;;0.80;85.18;95839.35;1785875;80;20917;-75
2021/01/30 06:40:31;;;;;;;70.00;38.10;;;;;;;0.84;85.11;95839.06;1785935;79;21086;-74
2021/01/30 06:43:12;;;;;;;65.40;35.17;;;;;;;0.93;85.21;95837.97;1785830;79;21024;-74
2021/01/30 06:45:41;;;;;;;64.53;34.70;;;;;;;1.02;85.21;95843.01;1786000;80;22028;-74
2021/01/30 06:48:12;;;;;;;100.00;55.00;;;;;;;1.11;85.18;95838.73;1785724;79;20912;-75
2021/01/30 06:50:42;;;;;;;123.70;67.72;;;;;;;1.19;85.82;95836.02;1778202;80;21109;-75
2021/01/30 06:53:28;;;;;;;79.95;39.55;;;;;;;1.27;85.24;95835.98;1785873;79;21047;-75
2021/01/30 06:55:54;;;;;;;116.62;59.55;;;;;;;1.31;85.00;95833.05;1786036;79;21475;-74
2021/01/30 06:58:34;;;;;;;78.85;46.88;;;;;;;1.23;84.82;95826.41;1785848;79;21422;-74
2021/01/30 07:01:13;;;;;;;76.87;41.00;;;;;;;1.23;84.67;95825.62;1785519;80;21117;-75
2021/01/30 07:04:02;;;;;;;68.70;38.67;;;;;;;1.20;85.75;95816.30;1786182;79;20896;-74
2021/01/30 07:07:14;;;;;;;146.47;72.30;;;;;;;1.23;85.48;95807.73;1785848;80;21602;-75
2021/01/30 07:10:19;;;;;;;148.35;68.60;;;;;;;1.23;85.09;95809.07;1785947;79;21407;-75
2021/01/30 07:12:53;;;;;;;115.20;58.63;;;;;;;1.29;84.75;95813.32;1785721;79;21196;-74
2021/01/30 07:15:30;;;;;;;108.45;55.80;;;;;;;1.43;84.69;95805.50;1785832;79;21071;-75
2021/01/30 07:18:30;;;;;;;93.50;55.73;;;;;;;1.44;84.50;95806.30;1785779;79;21052;-75
2021/01/30 07:21:19;;;;;;;91.85;48.45;;;;;;;1.53;84.58;95788.09;1785835;80;21103;-74
2021/01/30 07:24:13;;;;;;;76.10;43.02;;;;;;;1.65;84.54;95779.76;1785670;79;21483;-75
2021/01/30 07:26:56;;;;;;;91.95;47.98;;;;;;;1.61;84.84;95783.50;1785287;80;21134;-75
2021/01/30 07:29:37;;;;;;;110.95;60.73;;;;;;;1.52;84.86;95775.81;1785326;79;21471;-74
2021/01/30 07:32:32;;;;;;;116.25;61.40;;;;;;;1.47;84.97;95770.53;1785203;80;21527;-75
2021/01/30 07:35:12;;;;;;;127.05;71.67;;;;;;;1.49;84.60;95765.70;1785376;79;21416;-74
2021/01/30 07:37:56;;;;;;;104.72;56.42;;;;;;;1.45;85.19;95767.85;1785286;80;21016;-74
2021/01/30 07:40:58;;;;;;;108.12;59.65;;;;;;;1.50;85.29;95771.84;1785402;80;21452;-74
2021/01/30 07:43:31;;;;;;;100.30;52.58;;;;;;;1.58;84.78;95772.59;1785193;79;21081;-74
2021/01/30 07:46:08;;;;;;;87.10;47.20;;;;;;;1.66;85.00;95770.13;1786294;79;21476;-75
2021/01/30 07:48:40;;;;;;;82.35;47.35;;;;;;;1.78;84.81;95767.64;1785183;79;21130;-75
2021/01/30 07:51:14;;;;;;;80.53;45.10;;;;;;;1.87;84.80;95772.11;1785094;80;21062;-75
2021/01/30 07:53:40;;;;;;;75.12;41.77;;;;;;;1.94;84.57;95767.25;1785226;79;21432;-74
2021/01/30 07:56:24;;;;;;;56.35;31.33;;;;;;;2.03;84.52;95772.80;1785238;80;21146;-75
2021/01/30 07:59:07;;;;;;;40.38;20.92;;;;;;;2.08;84.60;95771.97;1784699;79;21035;-76
2021/01/30 08:01:42;;;;;;;35.80;18.07;;;;;;;2.14;85.19;95763.64;1785207;80;21098;-75
2021/01/30 08:04:23;;;;;;;24.85;13.40;;;;;;;2.28;84.39;95769.11;1784678;79;21026;-75
2021/01/30 08:07:02;;;;;;;20.90;10.82;;;;;;;2.41;85.19;95767.67;1784801;80;21185;-74
2021/01/30 08:09:43;;;;;;;24.12;13.95;;;;;;;2.52;84.96;95759.25;1785182;79;21015;-75
2021/01/30 08:12:46;;;;;;;13.43;7.97;;;;;;;2.64;85.11;95756.72;1783379;79;21499;-74
2021/01/30 08:15:22;;;;;;;16.02;8.75;;;;;;;2.76;84.85;95746.45;1785204;80;21503;-75
2021/01/30 08:17:59;;;;;;;19.77;11.08;;;;;;;2.87;84.54;95751.12;1785251;80;21404;-75
2021/01/30 08:20:57;;;;;;;25.75;12.60;;;;;;;2.97;84.28;95741.64;1785284;79;21974;-76
2021/01/30 08:23:55;;;;;;;22.60;13.72;;;;;;;3.06;83.92;95744.73;1785394;79;24771;-75
2021/01/30 08:26:29;;;;;;;11.13;7.00;;;;;;;3.13;84.12;95751.62;1785070;80;21122;-75
2021/01/30 08:29:16;;;;;;;18.67;9.43;;;;;;;3.23;83.30;95739.44;1785172;79;21062;-75
2021/01/30 08:31:56;;;;;;;20.10;10.00;;;;;;;3.19;83.59;95738.44;1785212;79;21118;-75
2021/01/30 08:34:28;;;;;;;6.22;4.42;;;;;;;3.27;83.62;95743.95;1785225;79;21173;-75
2021/01/30 08:37:14;;;;;;;7.50;4.03;;;;;;;3.33;83.76;95743.31;1785116;80;21072;-75
2021/01/30 08:40:12;;;;;;;7.10;4.25;;;;;;;3.33;83.85;95754.02;1783531;79;21138;-75
2021/01/30 08:42:55;;;;;;;10.23;5.55;;;;;;;3.28;83.90;95768.83;1785324;80;21032;-75
2021/01/30 08:45:26;;;;;;;10.00;4.87;;;;;;;3.27;83.72;95755.20;1784599;80;21125;-74
2021/01/30 08:48:13;;;;;;;7.62;3.80;;;;;;;3.20;83.89;95766.80;1784599;80;21294;-74
2021/01/30 08:50:47;;;;;;;26.40;7.72;;;;;;;3.11;84.03;95773.32;1783182;80;21066;-75
2021/01/30 08:53:22;;;;;;;12.78;6.30;;;;;;;3.05;84.22;95779.81;1785219;79;21216;-74
2021/01/30 08:55:52;;;;;;;13.18;6.42;;;;;;;3.02;84.08;95777.72;1785307;79;21090;-75
2021/01/30 08:58:39;;;;;;;8.73;4.65;;;;;;;3.03;84.09;95764.59;1785232;79;21397;-75
2021/01/30 09:01:13;;;;;;;4.90;2.50;;;;;;;3.06;84.17;95762.67;1785202;80;21254;-74
2021/01/30 09:03:49;;;;;;;4.42;2.17;;;;;;;3.09;84.00;95767.47;1780498;79;21040;-74
2021/01/30 09:06:44;;;;;;;6.95;3.60;;;;;;;3.09;84.05;95780.30;1785229;80;21083;-74
2021/01/30 09:09:22;;;;;;;12.03;5.12;;;;;;;3.12;84.02;95774.91;1785214;79;21190;-74
2021/01/30 09:11:59;;;;;;;5.87;2.60;;;;;;;3.20;83.87;95764.91;1785542;80;21130;-75
2021/01/30 09:14:31;;;;;;;7.92;4.35;;;;;;;3.31;83.64;95770.92;1799517;78;21189;-74
2021/01/30 09:17:18;;;;;;;14.83;7.33;;;;;;;3.39;83.42;95772.95;1799677;79;21063;-75
2021/01/30 09:20:11;;;;;;;11.75;9.43;;;;;;;3.44;83.13;95770.23;1799070;78;21121;-75
2021/01/30 09:22:55;;;;;;;10.70;6.70;;;;;;;3.53;83.12;95768.49;1799613;79;21427;-75
2021/01/30 09:25:29;;;;;;;9.70;6.90;;;;;;;3.57;83.00;95766.02;1799220;79;21141;-75
2021/01/30 09:28:21;;;;;;;9.95;5.35;;;;;;;3.55;82.99;95760.96;1795256;78;21243;-76
2021/01/30 09:31:09;;;;;;;14.83;9.83;;;;;;;3.54;83.04;95760.71;1799675;79;21071;-75
2021/01/30 09:33:39;;;;;;;11.55;8.03;;;;;;;3.54;83.16;95771.97;1799609;78;21102;-75
2021/01/30 09:36:14;;;;;;;14.45;11.53;;;;;;;3.53;83.13;95765.02;1799704;79;21086;-76
2021/01/30 09:38:46;;;;;;;10.80;8.53;;;;;;;3.52;83.22;95774.94;1799689;78;21432;-76
2021/01/30 09:41:34;;;;;;;17.48;13.00;;;;;;;3.56;83.03;95780.50;1799717;79;21190;-76
2021/01/30 09:44:27;;;;;;;24.92;19.73;;;;;;;3.52;83.06;95779.50;1799800;78;21109;-76
2021/01/30 09:46:56;;;;;;;25.75;16.32;;;;;;;3.45;83.19;95789.77;1799834;79;21475;-76
2021/01/30 09:49:44;;;;;;;21.30;17.30;;;;;;;3.42;83.10;95775.59;1799838;78;21114;-76
2021/01/30 09:52:14;;;;;;;12.55;9.60;;;;;;;3.44;83.21;95766.20;1799699;79;21082;-75
2021/01/30 09:54:40;;;;;;;12.10;9.60;;;;;;;3.47;83.36;95773.66;1799697;78;21194;-75
2021/01/30 09:57:09;;;;;;;9.20;5.47;;;;;;;3.51;83.33;95780.59;1799616;79;21129;-76
2021/01/30 09:59:35;;;;;;;10.35;8.63;;;;;;;3.53;83.44;95776.53;1799618;78;21110;-75
2021/01/30 10:02:18;;;;;;;9.58;5.90;;;;;;;3.58;83.39;95775.64;1799694;79;21130;-75
2021/01/30 10:04:45;;;;;;;10.43;7.67;;;;;;;3.58;83.40;95771.63;1798547;78;21098;-75
2021/01/30 10:07:15;;;;;;;11.68;9.13;;;;;;;3.63;83.27;95773.70;1799727;79;21988;-75
2021/01/30 10:09:46;;;;;;;11.35;7.25;;;;;;;3.67;83.17;95784.62;1797488;78;21138;-74
2021/01/30 10:12:14;;;;;;;10.25;8.23;;;;;;;3.69;83.05;95785.15;1799426;79;21146;-73
2021/01/30 10:14:44;;;;;;;7.78;4.08;;;;;;;3.67;83.10;95789.98;1785563;79;21122;-74
2021/01/30 10:17:32;;;;;;;11.28;5.55;;;;;;;3.64;83.10;95802.08;1785239;80;21102;-74
2021/01/30 10:20:05;;;;;;;9.90;5.77;;;;;;;3.60;83.16;95801.62;1785471;79;21193;-74
2021/01/30 10:22:36;;;;;;;8.40;4.60;;;;;;;3.61;83.10;95795.17;1784711;80;21110;-74
2021/01/30 10:25:07;;;;;;;9.55;6.90;;;;;;;3.67;83.14;95777.92;1785219;79;21496;-75
2021/01/30 10:27:33;;;;;;;8.58;5.05;;;;;;;3.72;83.26;95791.26;1785178;80;21491;-74
2021/01/30 10:29:59;;;;;;;16.37;10.78;;;;;;;3.76;83.24;95785.59;1785228;79;21019;-75
2021/01/30 10:32:43;;;;;;;11.15;8.30;;;;;;;3.84;83.11;95785.45;1785099;80;21958;-75
2021/01/30 10:35:21;;;;;;;10.82;6.58;;;;;;;3.87;82.91;95776.30;1785116;79;21416;-75
2021/01/30 10:37:51;;;;;;;12.82;6.62;;;;;;;3.95;82.63;95772.97;1785188;80;21174;-74
2021/01/30 10:40:40;;;;;;;14.33;6.30;;;;;;;3.93;82.48;95768.45;1785133;80;21078;-74
2021/01/30 10:43:13;;;;;;;;;;;;;;;3.90;82.46;95766.88;1787752;79;21032;-74
2021/01/30 10:45:41;;;;;;;16.82;7.90;;;;;;;3.86;82.64;95772.04;1783024;80;21219;-74
2021/01/30 10:48:12;;;;;;;35.70;24.37;;;;;;;3.87;82.81;95772.83;1785129;79;21038;-75
2021/01/30 10:50:43;;;;;;;30.12;20.30;;;;;;;3.94;82.69;95773.27;1785174;80;21071;-75
2021/01/30 10:53:30;;;;;;;20.17;13.00;;;;;;;3.94;82.93;95790.14;1784500;79;21412;-74
2021/01/30 10:55:56;;;;;;;19.73;10.70;;;;;;;3.89;83.10;95813.52;1785188;80;21440;-74
2021/01/30 10:58:33;;;;;;;13.03;7.10;;;;;;;3.83;83.16;95850.84;1785214;79;21254;-74
2021/01/30 11:01:05;;;;;;;14.28;8.55;;;;;;;3.58;81.93;95867.49;1785220;80;21480;-75
2021/01/30 11:03:51;;;;;;;17.92;10.18;;;;;;;3.40;81.45;95885.12;1785378;79;21515;-75
2021/01/30 11:06:43;;;;;;;14.75;8.23;;;;;;;2.94;80.90;95889.37;1756125;80;21055;-74
2021/01/30 11:09:28;;;;;;;17.42;9.55;;;;;;;2.57;81.13;95891.31;1785261;79;21016;-74
2021/01/30 11:12:20;;;;;;;18.57;11.15;;;;;;;2.31;81.42;95914.23;1785273;79;21946;-76
2021/01/30 11:14:46;;;;;;;15.93;9.78;;;;;;;2.05;82.25;95937.64;1795194;78;21037;-74
2021/01/30 11:17:31;;;;;;;21.75;13.75;;;;;;;1.78;83.04;95943.34;1797271;79;21155;-75
2021/01/30 11:19:58;;;;;;;23.73;13.62;;;;;;;1.63;83.12;95946.11;1797218;78;21407;-75
2021/01/30 11:22:26;;;;;;;29.92;15.05;;;;;;;1.52;82.81;95947.98;1797365;79;21109;-74
2021/01/30 11:24:55;;;;;;;30.50;16.25;;;;;;;1.31;83.56;95965.14;1770708;79;21192;-75
2021/01/30 11:27:40;;;;;;;31.57;16.52;;;;;;;1.09;82.67;95981.44;1795154;79;21165;-74
2021/01/30 11:30:23;;;;;;;42.27;19.62;;;;;;;1.18;82.67;95984.36;1797194;78;21019;-74
2021/01/30 11:32:54;;;;;;;39.35;18.77;;;;;;;1.07;82.84;95996.92;1797202;79;21066;-74
2021/01/30 11:35:29;;;;;;;37.98;20.77;;;;;;;1.09;82.38;96017.45;1797265;79;21094;-75
2021/01/30 11:37:57;;;;;;;36.98;21.23;;;;;;;1.08;82.14;96023.86;1797291;78;21313;-76
2021/01/30 11:40:24;;;;;;;46.18;23.57;;;;;;;1.05;81.41;96035.88;1771039;79;21110;-75
2021/01/30 11:42:50;;;;;;;46.80;25.30;;;;;;;1.05;81.62;96039.08;1797200;79;21153;-76
2021/01/30 11:45:16;;;;;;;42.85;23.27;;;;;;;1.08;81.79;96050.00;1797280;78;21141;-74
2021/01/30 11:47:43;;;;;;;52.62;28.38;;;;;;;1.08;81.31;96054.00;1797378;79;21498;-74
2021/01/30 11:50:10;;;;;;;52.62;26.27;;;;;;;1.06;81.51;96054.80;1797290;78;21264;-74
2021/01/30 11:52:37;;;;;;;63.30;32.70;;;;;;;0.98;80.11;96068.67;1770541;79;21515;-74
2021/01/30 11:55:04;;;;;;;76.40;41.88;;;;;;;0.88;80.67;96077.20;1797282;78;21502;-75
2021/01/30 11:57:30;;;;;;;78.75;44.38;;;;;;;0.76;80.21;96097.43;1797314;79;21125;-74
2021/01/30 11:59:56;;;;;;;70.87;38.30;;;;;;;0.68;80.61;96120.60;1797175;78;21498;-74
2021/01/30 12:02:36;;;;;;;65.67;33.55;;;;;;;0.59;80.42;96120.84;1797324;79;21200;-74